Horseshoe Bay, TX

1:26 PM CST on February 25, 2017 (GMT -0600)
Horseshoe Bay

Weather History for KDZB - May, 2014

Change the Weather History Date:

Friday, May 2, 2014

  Actual Average (KBMQ) Record (KBMQ)
Temperature  
Mean Temperature 65 °F -  
Max Temperature 81 °F 80 °F 91 °F (1998)
Min Temperature 49 °F 60 °F 45 °F (2013)
Growing Degree Days 15 (Base 50)    
Moisture  
Dew Point 30 °F    
Average Humidity 27    
Maximum Humidity 53    
Minimum Humidity 13    
Precipitation  
Precipitation 0.00 in - - ()
Sea Level Pressure  
Sea Level Pressure 30.03 in    
Wind  
Wind Speed 4 mph (West)    
Max Wind Speed 13 mph    
Max Gust Speed 21 mph    
Visibility 10 miles    
Events      
Averages and records for this station are not official NWS values.
T = Trace of Precipitation, MM = Missing Value Source: NWS Daily Summary

Daily Weather History Graph

Daily Weather History Graph

Search for Another Location

Airport or City:

Trip Planner

Search our weather history database for the weather conditions in past years. The results will help you decide how hot, cold, wet, or windy it might be!

Date:

Astronomy

May. 02, 2014 Rise Set
Actual Time 5:48 AM MDT 7:12 PM MDT
Civil Twilight 5:23 AM MDT 7:37 PM MDT
Nautical Twilight 4:52 AM MDT 8:08 PM MDT
Astronomical Twilight 4:21 AM MDT 8:40 PM MDT
Moon 8:31 AM MDT (5/2) 10:31 PM MDT (5/2)
Length of Visible Light 14h 14m
Length of Day
13h 23m
Waxing Crescent, 13% of the Moon is Illuminated
May 2
Waxing Crescent
May 6
First Quarter
May 14
Full
May 21
Last Quarter
May 28
New

Hourly Weather History & Observations

Time (MDT) Temp. Dew Point Humidity Pressure Visibility Wind Dir Wind Speed Gust Speed Precip Events Conditions
12:15 AM 51.1 °F 31.1 °F 46% 30.07 in 10.0 mi SSE 3.5 mph - N/A   Clear
12:35 AM 50.9 °F 31.6 °F 48% 30.07 in 10.0 mi Calm Calm - N/A   Clear
12:55 AM 50.4 °F 32.0 °F 49% 30.06 in 10.0 mi Calm Calm - N/A   Clear
1:15 AM 51.4 °F 32.0 °F 47% 30.06 in 10.0 mi Calm Calm - N/A   Clear
1:35 AM 49.6 °F 33.1 °F 53% 30.05 in 10.0 mi Calm Calm - N/A   Clear
1:55 AM 54.3 °F 33.4 °F 45% 30.05 in 10.0 mi Calm Calm - N/A   Clear
2:15 AM 57.0 °F 32.5 °F 40% 30.04 in 10.0 mi SSW 3.5 mph - N/A   Clear
2:35 AM 57.2 °F 32.0 °F 38% 30.05 in 10.0 mi SSW 3.5 mph - N/A   Clear
2:55 AM 59.0 °F 31.6 °F 36% 30.04 in 10.0 mi Calm Calm - N/A   Clear
3:15 AM 60.6 °F 31.8 °F 34% 30.04 in 10.0 mi SSW 4.6 mph - N/A   Clear
3:35 AM 62.1 °F 31.3 °F 31% 30.05 in 10.0 mi SW 3.5 mph - N/A   Clear
3:55 AM 60.3 °F 32.9 °F 36% 30.04 in 10.0 mi Calm Calm - N/A   Clear
4:15 AM 57.4 °F 33.4 °F 40% 30.05 in 10.0 mi Calm Calm - N/A   Clear
4:35 AM 60.4 °F 31.5 °F 34% 30.05 in 10.0 mi West 3.5 mph - N/A   Clear
4:55 AM 59.0 °F 32.0 °F 36% 30.06 in 10.0 mi West 3.5 mph - N/A   Clear
5:15 AM 58.6 °F 32.9 °F 38% 30.06 in 10.0 mi Calm Calm - N/A   Clear
5:35 AM 57.7 °F 35.1 °F 43% 30.06 in 10.0 mi Calm Calm - N/A   Clear
5:55 AM 56.3 °F 36.1 °F 47% 30.07 in 10.0 mi Calm Calm - N/A   Clear
6:15 AM 56.3 °F 36.7 °F 48% 30.08 in 10.0 mi NW 4.6 mph - N/A   Clear
6:35 AM 56.3 °F 37.6 °F 50% 30.09 in 10.0 mi WNW 3.5 mph - N/A   Clear
6:55 AM 56.7 °F 36.7 °F 47% 30.09 in 10.0 mi NW 3.5 mph - N/A   Clear
7:15 AM 57.2 °F 36.9 °F 47% 30.10 in 10.0 mi Calm Calm - N/A   Clear
7:35 AM 59.5 °F 34.7 °F 39% 30.10 in 10.0 mi WNW 4.6 mph - N/A   Clear
7:55 AM 61.7 °F 32.0 °F 33% 30.11 in 10.0 mi WNW 6.9 mph - N/A   Clear
8:15 AM 62.6 °F 32.0 °F 32% 30.11 in 10.0 mi NW 6.9 mph - N/A   Clear
8:35 AM 65.7 °F 31.5 °F 28% 30.10 in 10.0 mi NW 8.1 mph - N/A   Clear
8:55 AM 67.1 °F 31.6 °F 27% 30.10 in 10.0 mi NNW 9.2 mph - N/A   Clear
9:15 AM 69.1 °F 31.6 °F 25% 30.10 in 10.0 mi WNW 8.1 mph - N/A   Clear
9:35 AM 71.1 °F 33.3 °F 25% 30.10 in 10.0 mi NNW 5.8 mph - N/A   Clear
9:55 AM 72.0 °F 32.0 °F 23% 30.10 in 10.0 mi NNW 5.8 mph - N/A   Clear
10:15 AM 72.9 °F 30.7 °F 21% 30.10 in 10.0 mi NW 5.8 mph - N/A   Clear
10:35 AM 73.9 °F 29.3 °F 19% 30.10 in 10.0 mi NW 9.2 mph - N/A   Clear
11:15 AM 76.5 °F 27.3 °F 16% 30.08 in 10.0 mi WNW 9.2 mph - N/A   Clear
11:35 AM 77.2 °F 27.9 °F 16% 30.07 in 10.0 mi WSW 5.8 mph - N/A   Clear
11:55 AM 77.0 °F 27.7 °F 16% 30.06 in 10.0 mi WNW 10.4 mph 20.7 mph N/A   Clear
12:15 PM 74.3 °F 25.7 °F 16% 30.05 in 10.0 mi West 6.9 mph - N/A   Scattered Clouds
12:35 PM 78.6 °F 27.1 °F 15% 30.04 in 10.0 mi NW 12.7 mph 18.4 mph N/A   Scattered Clouds
12:55 PM 77.2 °F 26.8 °F 16% 30.03 in 10.0 mi West 5.8 mph - N/A   Scattered Clouds
1:15 PM 76.3 °F 26.6 °F 16% 30.02 in 10.0 mi WNW 5.8 mph - N/A   Mostly Cloudy
1:35 PM 79.3 °F 27.5 °F 15% 30.01 in 10.0 mi NW 9.2 mph - N/A   Mostly Cloudy
1:55 PM 80.1 °F 27.5 °F 15% 30.00 in 10.0 mi NW 6.9 mph - N/A   Mostly Cloudy
2:15 PM 79.3 °F 26.2 °F 14% 30.00 in 10.0 mi WNW 5.8 mph 19.6 mph N/A   Scattered Clouds
2:35 PM 77.2 °F 26.8 °F 16% 29.99 in 10.0 mi NNW 4.6 mph - N/A   Mostly Cloudy
2:55 PM 78.3 °F 26.1 °F 15% 29.98 in 10.0 mi NNW 8.1 mph 16.1 mph N/A   Scattered Clouds
3:15 PM 78.4 °F 26.2 °F 15% 29.98 in 10.0 mi NNW 9.2 mph - N/A   Clear
3:35 PM 81.1 °F 26.4 °F 13% 29.97 in 10.0 mi NW 10.4 mph 17.3 mph N/A   Clear
3:55 PM 79.0 °F 26.8 °F 15% 29.97 in 10.0 mi NW 9.2 mph - N/A   Scattered Clouds
4:15 PM 80.6 °F 26.6 °F 14% 29.97 in 10.0 mi WNW 9.2 mph 18.4 mph N/A   Scattered Clouds
4:35 PM 78.8 °F 26.1 °F 14% 29.96 in 10.0 mi NW 11.5 mph 17.3 mph N/A   Scattered Clouds
4:55 PM 79.9 °F 26.4 °F 14% 29.96 in 10.0 mi West 5.8 mph - N/A   Scattered Clouds
5:15 PM 80.4 °F 26.6 °F 14% 29.96 in 10.0 mi WNW 8.1 mph - N/A   Clear
5:35 PM 79.7 °F 26.2 °F 14% 29.96 in 10.0 mi NW 6.9 mph - N/A   Clear
5:55 PM 79.0 °F 26.6 °F 15% 29.95 in 10.0 mi NNW 8.1 mph - N/A   Clear
6:15 PM 78.3 °F 25.7 °F 14% 29.96 in 10.0 mi WNW 8.1 mph - N/A   Clear
6:35 PM 77.5 °F 26.4 °F 15% 29.96 in 10.0 mi WNW 5.8 mph - N/A   Clear
6:55 PM 76.1 °F 26.2 °F 16% 29.96 in 10.0 mi Calm Calm - N/A   Clear
7:15 PM 73.9 °F 26.1 °F 17% 29.96 in 10.0 mi Calm Calm - N/A   Clear
7:35 PM 69.6 °F 27.1 °F 20% 29.97 in 10.0 mi Calm Calm - N/A   Clear
7:55 PM 66.2 °F 28.4 °F 24% 29.97 in 5.0 mi Calm Calm - N/A   Haze
8:15 PM 64.6 °F 28.4 °F 26% 29.98 in 10.0 mi South 3.5 mph - N/A   Clear
8:35 PM 63.7 °F 28.4 °F 26% 29.98 in 10.0 mi South 3.5 mph - N/A   Clear
8:55 PM 63.9 °F 27.9 °F 26% 29.98 in 10.0 mi Calm Calm - N/A   Clear
9:15 PM 63.9 °F 27.7 °F 26% 29.99 in 10.0 mi South 3.5 mph - N/A   Clear
9:35 PM 63.3 °F 27.7 °F 26% 29.99 in 10.0 mi South 4.6 mph - N/A   Clear
9:55 PM 62.4 °F 27.7 °F 27% 30.00 in 10.0 mi South 4.6 mph - N/A   Clear
10:15 PM 63.5 °F 27.5 °F 26% 30.00 in 10.0 mi South 4.6 mph - N/A   Clear
10:35 PM 63.5 °F 27.3 °F 25% 30.00 in 10.0 mi South 4.6 mph - N/A   Clear
10:55 PM 64.2 °F 27.0 °F 24% 30.00 in 10.0 mi SSW 3.5 mph - N/A   Clear
11:15 PM 64.9 °F 27.1 °F 24% 29.99 in 10.0 mi SSW 3.5 mph - N/A   Clear
11:35 PM 66.0 °F 27.9 °F 24% 29.99 in 10.0 mi SSW 4.6 mph - N/A   Clear
11:55 PM 68.0 °F 30.2 °F 24% 29.99 in 10.0 mi SW 6.9 mph - N/A   Clear